Jump to content

Morten Blindheim

Members
  • Content Count

    138
  • Joined

  • Last visited

  • Days Won

    1

Morten Blindheim last won the day on May 3 2018

Morten Blindheim had the most liked content!

Community Reputation

4 Neutral

About Morten Blindheim

  • Birthday 07/06/1977
  1. Kom over denne mens jeg drev med research av AI-fly som jeg driver og lager teksturer på: http://www.newsminer.com/features/sundays/becoming_alaskan/freedom-of-the-far-north-lures-norwegian-to-find-a/article_663cf5ec-802c-11e5-bbea-63326596d30b.html Interessant lesning, og så vidt jeg vet flyr han for Warbelow fremdeles.
  2. https://library.avsim.net http://www.flightsim.com/vbfs/content.php http://www.freewarescenery.com/fsx.html
  3. "Vi er et flyselskap, selv om vi ikke helt vet hva det er", jada...
  4. Her er det nok snakk om noen som drar opp en fire år gammel tråd, og en seks år gammel tråd, bare for å reklamere for sin egen nettbutikk.
  5. Og tilgjengelig ipad for hvert flysete, ikke verst.
  6. Fra: http://forbrukerportalen.no/Publikasjoner/Fakta/flyrettigheter#innstillinger Spørs hvordan du tolker "alle rimelige tiltak" i denne situasjonen.
  7. Har roet seg litt ned nå, er nesten vindstille : EGCC 181450Z 26033G51KT 240V310 9999 SCT028 BKN032 09/03 Q0986
  8. Blåser litt her gitt... Metar: EGCC 181320Z 25046G63KT 9999 VCSH BKN044 10/02 Q0980 TEMPO 4000 SHRA
  9. Høres ikke bra ut: http://www.vg.no/pub/vgart.hbs?artid=133634 Edit: Lurer på om dette er et av Atlantic Airways' fly.
  10. Så dette på nyhetene i går. Piloten har sluppet ganske lett fra ulykken. Link Edit: Flyet fra en annen vinkel: Link
  11. Håper han får en klekkelig bot, lang fengselsstraff, og får livstidsforbud mot å reise til og fra, og oppholde seg på flyplasser i Norge. Kanskje han lærer noe av det da.
  12. Nå er det video tilgjengelig av denne episoden: http://www.kstp.com/article/stories/S17479.html?cat=1
×
×
  • Create New...